Time;durP1;ratioP1;P1;durP2;ratioP2;P2;SDS_P1;SDS_P2;PMS_P1;PMS_P2;Temp;Humidity;BMP_temperature;BMP_pressure;BME280_temperature;BME280_humidity;BME280_pressure;Samples;Min_cycle;Max_cycle;Signal;HPM_P1;HPM_P2
2023/07/25 00:01:09;;;;;;;14.38;5.28;;;14.40;99.90;;;;;;5041249;28;20079;-71
2023/07/25 00:03:34;;;;;;;12.65;4.88;;;14.30;99.90;;;;;;5041845;28;20124;-71
2023/07/25 00:06:02;;;;;;;13.95;4.88;;;14.30;99.90;;;;;;5041087;28;20029;-71
2023/07/25 00:08:28;;;;;;;12.43;5.03;;;14.30;99.90;;;;;;5041636;28;20116;-70
2023/07/25 00:10:53;;;;;;;12.18;5.30;;;14.30;99.90;;;;;;5042513;28;20485;-71
2023/07/25 00:13:19;;;;;;;10.40;4.90;;;14.30;99.90;;;;;;5042098;28;20036;-70
2023/07/25 00:15:45;;;;;;;12.93;5.03;;;14.30;99.90;;;;;;5041672;28;20069;-71
2023/07/25 00:18:10;;;;;;;14.27;5.28;;;14.30;99.90;;;;;;5040351;28;20028;-71
2023/07/25 00:20:36;;;;;;;18.38;5.38;;;14.20;99.90;;;;;;5042029;28;20082;-70
2023/07/25 00:23:01;;;;;;;14.57;5.10;;;14.20;99.90;;;;;;5041639;28;20072;-72
2023/07/25 00:25:27;;;;;;;11.30;5.07;;;14.20;99.90;;;;;;5040713;28;20021;-72
2023/07/25 00:27:53;;;;;;;14.20;5.45;;;14.20;99.90;;;;;;5041981;28;20025;-74
2023/07/25 00:30:18;;;;;;;15.10;5.53;;;14.20;99.90;;;;;;5040190;28;20045;-70
2023/07/25 00:32:44;;;;;;;14.90;5.57;;;14.10;99.90;;;;;;5041264;28;20033;-71
2023/07/25 00:35:09;;;;;;;13.32;5.65;;;14.20;99.90;;;;;;5041465;28;20033;-73
2023/07/25 00:37:35;;;;;;;15.57;5.57;;;14.10;99.90;;;;;;5041777;28;20025;-72
2023/07/25 00:40:01;;;;;;;13.93;5.43;;;14.20;99.90;;;;;;5041999;28;20041;-71
2023/07/25 00:42:27;;;;;;;15.52;5.78;;;14.10;99.90;;;;;;5041686;28;20021;-71
2023/07/25 00:44:53;;;;;;;15.57;5.40;;;14.20;99.90;;;;;;5041614;28;20535;-72
2023/07/25 00:47:19;;;;;;;15.10;5.65;;;14.10;99.90;;;;;;5041666;28;20021;-71
2023/07/25 00:49:46;;;;;;;17.38;5.40;;;14.10;99.90;;;;;;5041715;28;21306;-71
2023/07/25 00:52:12;;;;;;;12.93;5.25;;;14.10;99.90;;;;;;5041150;28;20042;-72
2023/07/25 00:54:39;;;;;;;16.10;5.88;;;14.10;99.90;;;;;;5040595;28;21321;-71
2023/07/25 00:57:05;;;;;;;13.55;5.00;;;14.10;99.90;;;;;;5040123;28;20463;-70
2023/07/25 00:59:31;;;;;;;13.18;5.90;;;14.00;99.90;;;;;;5041592;28;20029;-72
2023/07/25 01:01:57;;;;;;;13.07;5.65;;;14.00;99.90;;;;;;5041904;28;20022;-71
2023/07/25 01:04:24;;;;;;;15.23;5.38;;;14.00;99.90;;;;;;5039539;28;20037;-70
2023/07/25 01:06:52;;;;;;;19.45;5.80;;;14.00;99.90;;;;;;5041678;28;20055;-71
2023/07/25 01:09:34;;;;;;;16.40;5.80;;;13.90;99.90;;;;;;5041472;28;20035;-71
2023/07/25 01:12:00;;;;;;;14.05;5.75;;;14.00;99.90;;;;;;5041426;28;20037;-70
2023/07/25 01:14:25;;;;;;;13.35;5.05;;;14.00;99.90;;;;;;5040598;28;20030;-70
2023/07/25 01:16:51;;;;;;;14.55;5.60;;;13.90;99.90;;;;;;5041682;28;20097;-70
2023/07/25 01:19:18;;;;;;;15.55;5.25;;;14.00;99.90;;;;;;5040998;28;20021;-71
2023/07/25 01:21:44;;;;;;;15.48;5.60;;;13.90;99.90;;;;;;5041182;28;20033;-70
2023/07/25 01:24:10;;;;;;;20.52;5.95;;;13.90;99.90;;;;;;5041263;28;20044;-71
2023/07/25 01:26:36;;;;;;;15.35;5.47;;;13.90;99.90;;;;;;5040985;28;20061;-71
2023/07/25 01:29:02;;;;;;;10.48;5.65;;;13.90;99.90;;;;;;5040934;28;20044;-70
2023/07/25 01:31:27;;;;;;;16.70;5.68;;;13.80;99.90;;;;;;5044016;28;20021;-71
2023/07/25 01:33:53;;;;;;;18.48;6.28;;;13.80;99.90;;;;;;5045247;28;20588;-70
2023/07/25 01:36:19;;;;;;;20.67;6.10;;;13.80;99.90;;;;;;5043259;28;20037;-70
2023/07/25 01:38:44;;;;;;;13.50;5.38;;;13.70;99.90;;;;;;5044501;28;20037;-71
2023/07/25 01:41:10;;;;;;;14.80;5.55;;;13.70;99.90;;;;;;5044531;28;20417;-69
2023/07/25 01:43:35;;;;;;;18.80;6.35;;;13.70;99.90;;;;;;5044794;28;20034;-70
2023/07/25 01:46:01;;;;;;;17.55;6.65;;;13.60;99.90;;;;;;5044728;28;20084;-70
2023/07/25 01:48:26;;;;;;;16.48;5.65;;;13.70;99.90;;;;;;5044226;28;20494;-72
2023/07/25 01:50:53;;;;;;;14.25;6.30;;;13.70;99.90;;;;;;5044930;28;20061;-69
2023/07/25 01:53:18;;;;;;;17.63;6.00;;;13.70;99.90;;;;;;5044821;28;20052;-70
2023/07/25 01:55:44;;;;;;;12.73;5.80;;;13.70;99.90;;;;;;5043284;28;20029;-69
2023/07/25 01:58:09;;;;;;;15.98;6.57;;;13.60;99.90;;;;;;5043478;28;20027;-72
2023/07/25 02:00:35;;;;;;;19.00;6.25;;;13.60;99.90;;;;;;5043151;28;20017;-71
2023/07/25 02:03:01;;;;;;;15.07;6.60;;;13.60;99.90;;;;;;5044524;28;20069;-70
2023/07/25 02:05:26;;;;;;;13.55;6.28;;;13.60;99.90;;;;;;5044807;28;20116;-71
2023/07/25 02:07:52;;;;;;;23.15;6.78;;;13.60;99.90;;;;;;5044604;28;20130;-69
2023/07/25 02:10:17;;;;;;;21.67;7.57;;;13.60;99.90;;;;;;5043270;28;20450;-70
2023/07/25 02:12:43;;;;;;;20.42;8.13;;;13.60;99.90;;;;;;5044168;28;20036;-72
2023/07/25 02:15:09;;;;;;;20.30;8.30;;;13.60;99.90;;;;;;5044027;28;20026;-70
2023/07/25 02:17:35;;;;;;;21.23;8.13;;;13.50;99.90;;;;;;5043401;28;20478;-70
2023/07/25 02:20:00;;;;;;;18.88;8.52;;;13.50;99.90;;;;;;5044373;28;20030;-70
2023/07/25 02:22:26;;;;;;;20.73;8.60;;;13.50;99.90;;;;;;5044066;28;20036;-70
2023/07/25 02:24:52;;;;;;;21.27;8.75;;;13.50;99.90;;;;;;5043983;28;20065;-70
2023/07/25 02:27:17;;;;;;;23.23;8.63;;;13.50;99.90;;;;;;5043986;28;20026;-71
2023/07/25 02:29:43;;;;;;;21.25;8.05;;;13.50;99.90;;;;;;5043367;28;20033;-71
2023/07/25 02:32:09;;;;;;;17.40;8.48;;;13.40;99.90;;;;;;5042592;28;20029;-70
2023/07/25 02:34:34;;;;;;;18.55;8.55;;;13.50;99.90;;;;;;5042774;28;20036;-70
2023/07/25 02:37:00;;;;;;;21.33;9.05;;;13.50;99.90;;;;;;5043842;28;20036;-73
2023/07/25 02:39:25;;;;;;;18.80;8.23;;;13.50;99.90;;;;;;5042809;28;20029;-69
2023/07/25 02:41:51;;;;;;;24.17;8.60;;;13.50;99.90;;;;;;5043294;28;20047;-71
2023/07/25 02:44:16;;;;;;;27.85;8.88;;;13.50;99.90;;;;;;5043322;28;20393;-73
2023/07/25 02:46:42;;;;;;;16.75;8.63;;;13.40;99.90;;;;;;5043107;28;20033;-73
2023/07/25 02:49:08;;;;;;;18.60;8.55;;;13.40;99.90;;;;;;5043351;28;20021;-69
2023/07/25 02:51:33;;;;;;;18.65;8.63;;;13.40;99.90;;;;;;5043355;28;20136;-71
2023/07/25 02:53:59;;;;;;;24.27;7.93;;;13.40;99.90;;;;;;5043826;28;20032;-73
2023/07/25 02:56:28;;;;;;;25.08;9.13;;;13.40;99.90;;;;;;5042894;28;20033;-77
2023/07/25 02:58:54;;;;;;;16.38;7.68;;;13.30;99.90;;;;;;5042426;28;20044;-72
2023/07/25 03:01:20;;;;;;;23.13;8.43;;;13.30;99.90;;;;;;5043363;28;20529;-70
2023/07/25 03:03:45;;;;;;;23.63;8.23;;;13.30;99.90;;;;;;5042384;28;20037;-70
2023/07/25 03:06:11;;;;;;;25.38;8.93;;;13.30;99.90;;;;;;5041870;28;20025;-71
2023/07/25 03:08:37;;;;;;;19.13;8.27;;;13.30;99.90;;;;;;5042849;28;20029;-70
2023/07/25 03:11:02;;;;;;;26.33;8.77;;;13.30;99.90;;;;;;5043284;28;20060;-72
2023/07/25 03:13:28;;;;;;;21.27;8.15;;;13.20;99.90;;;;;;5042103;28;20030;-72
2023/07/25 03:15:53;;;;;;;18.48;7.40;;;13.20;99.90;;;;;;5042772;28;20065;-74
2023/07/25 03:18:19;;;;;;;19.42;7.70;;;13.20;99.90;;;;;;5041761;28;20079;-70
2023/07/25 03:20:44;;;;;;;19.05;7.95;;;13.20;99.90;;;;;;5042672;28;20033;-71
2023/07/25 03:23:10;;;;;;;25.10;7.75;;;13.10;99.90;;;;;;5042262;28;20056;-73
2023/07/25 03:25:36;;;;;;;19.98;7.88;;;13.10;99.90;;;;;;5041649;28;20021;-69
2023/07/25 03:28:02;;;;;;;16.33;7.65;;;13.10;99.90;;;;;;5042791;28;20025;-73
2023/07/25 03:30:27;;;;;;;22.40;8.60;;;13.10;99.90;;;;;;5042730;28;20029;-72
2023/07/25 03:32:54;;;;;;;21.17;7.40;;;13.10;99.90;;;;;;5042876;28;20085;-72
2023/07/25 03:35:20;;;;;;;21.88;8.02;;;13.10;99.90;;;;;;5042481;28;20940;-70
2023/07/25 03:37:45;;;;;;;19.90;8.13;;;13.10;99.90;;;;;;5042355;28;20041;-70
2023/07/25 03:40:11;;;;;;;18.05;7.50;;;13.10;99.90;;;;;;5040807;28;20025;-69
2023/07/25 03:42:36;;;;;;;18.02;7.70;;;13.00;99.90;;;;;;5041344;28;20032;-70
2023/07/25 03:45:02;;;;;;;18.65;8.27;;;13.10;99.90;;;;;;5040506;28;20043;-72
2023/07/25 03:47:28;;;;;;;20.20;8.35;;;13.00;99.90;;;;;;5039809;28;20052;-71
2023/07/25 03:49:54;;;;;;;21.70;8.20;;;13.00;99.90;;;;;;5040942;28;20022;-72
2023/07/25 03:52:19;;;;;;;21.25;8.18;;;13.00;99.90;;;;;;5041272;28;20049;-72
2023/07/25 03:54:45;;;;;;;19.83;8.05;;;12.90;99.90;;;;;;5039972;28;20033;-71
2023/07/25 03:57:10;;;;;;;18.63;8.60;;;12.90;99.90;;;;;;5042404;28;20572;-70
2023/07/25 03:59:36;;;;;;;16.02;7.85;;;13.00;99.90;;;;;;5040833;28;20025;-68
2023/07/25 04:02:02;;;;;;;21.13;7.90;;;12.90;99.90;;;;;;5042554;28;20022;-70
2023/07/25 04:04:27;;;;;;;18.83;7.20;;;12.90;99.90;;;;;;5042336;28;20033;-70
2023/07/25 04:06:53;;;;;;;22.25;8.20;;;12.90;99.90;;;;;;5042275;28;20033;-68
2023/07/25 04:09:18;;;;;;;20.83;8.35;;;12.90;99.90;;;;;;5042218;28;20021;-68
2023/07/25 04:11:44;;;;;;;20.67;7.57;;;12.80;99.90;;;;;;5041926;28;20584;-69
2023/07/25 04:14:09;;;;;;;24.33;8.07;;;12.90;99.90;;;;;;5040795;28;20021;-70
2023/07/25 04:16:35;;;;;;;20.30;7.82;;;12.90;99.90;;;;;;5040685;28;20036;-70
2023/07/25 04:19:01;;;;;;;19.17;8.18;;;12.80;99.90;;;;;;5041745;28;20612;-70
2023/07/25 04:21:26;;;;;;;24.33;8.68;;;12.80;99.90;;;;;;5041951;28;20032;-69
2023/07/25 04:23:52;;;;;;;18.20;8.10;;;12.80;99.90;;;;;;5039784;28;20140;-72
2023/07/25 04:26:18;;;;;;;21.17;8.05;;;12.80;99.90;;;;;;5040123;28;20755;-72
2023/07/25 04:28:44;;;;;;;21.42;9.15;;;12.80;99.90;;;;;;5041845;28;20087;-69
2023/07/25 04:31:09;;;;;;;21.45;8.85;;;12.80;99.90;;;;;;5041826;28;20108;-71
2023/07/25 04:33:35;;;;;;;15.48;7.57;;;12.80;99.90;;;;;;5040181;28;20037;-72
2023/07/25 04:36:00;;;;;;;16.85;7.65;;;12.80;99.90;;;;;;5040922;28;20514;-70
2023/07/25 04:38:26;;;;;;;21.92;8.38;;;12.80;99.90;;;;;;5040592;28;20080;-70
2023/07/25 04:40:51;;;;;;;25.30;8.13;;;12.80;99.90;;;;;;5040333;28;20041;-69
2023/07/25 04:43:17;;;;;;;17.42;7.93;;;12.80;99.90;;;;;;5040307;28;20068;-69
2023/07/25 04:45:43;;;;;;;15.13;7.65;;;12.80;99.90;;;;;;5039559;28;20033;-68
2023/07/25 04:48:08;;;;;;;16.13;7.38;;;12.80;99.90;;;;;;5040499;28;20052;-69
2023/07/25 04:50:34;;;;;;;18.00;7.10;;;12.90;99.90;;;;;;5040873;28;20022;-71
2023/07/25 04:52:59;;;;;;;15.55;7.50;;;12.90;99.90;;;;;;5035078;28;20168;-68
2023/07/25 04:55:25;;;;;;;26.35;8.57;;;12.90;99.90;;;;;;5038720;28;20030;-71
2023/07/25 04:57:51;;;;;;;19.50;7.45;;;12.90;99.90;;;;;;5040171;28;20038;-72
2023/07/25 05:00:17;;;;;;;19.33;7.25;;;13.00;99.90;;;;;;5038850;28;20030;-69
2023/07/25 05:02:43;;;;;;;22.27;8.13;;;12.90;99.90;;;;;;5040740;28;20038;-70
2023/07/25 05:05:09;;;;;;;15.25;6.78;;;13.00;99.90;;;;;;5042301;28;20037;-70
2023/07/25 05:07:34;;;;;;;20.02;7.57;;;13.00;99.90;;;;;;5045486;28;20030;-69
2023/07/25 05:10:00;;;;;;;15.35;7.05;;;13.00;99.90;;;;;;5044507;28;20034;-71
2023/07/25 05:12:25;;;;;;;11.88;6.72;;;13.00;99.90;;;;;;5045020;28;20065;-72
2023/07/25 05:14:51;;;;;;;12.98;6.38;;;13.10;99.90;;;;;;5045945;28;20079;-72
2023/07/25 05:17:16;;;;;;;22.92;6.85;;;13.10;99.90;;;;;;5045423;28;20529;-69
2023/07/25 05:19:42;;;;;;;15.20;6.65;;;13.10;99.90;;;;;;5045824;28;20034;-71
2023/07/25 05:22:08;;;;;;;17.98;7.18;;;13.20;99.90;;;;;;5043956;28;20022;-71
2023/07/25 05:24:33;;;;;;;21.33;6.63;;;13.20;99.90;;;;;;5045158;28;20033;-71
2023/07/25 05:26:59;;;;;;;19.27;6.47;;;13.30;99.90;;;;;;5044631;28;20093;-71
2023/07/25 05:29:25;;;;;;;13.50;6.47;;;13.30;99.90;;;;;;5044668;28;20029;-69
2023/07/25 05:31:51;;;;;;;15.82;6.65;;;13.40;99.90;;;;;;5043447;28;20486;-70
2023/07/25 05:34:16;;;;;;;17.13;6.70;;;13.40;99.90;;;;;;5043739;28;20544;-72
2023/07/25 05:36:42;;;;;;;15.02;6.82;;;13.50;99.90;;;;;;5043195;28;20090;-70
2023/07/25 05:39:07;;;;;;;14.70;6.57;;;13.50;99.90;;;;;;5043684;28;20033;-69
2023/07/25 05:41:33;;;;;;;18.77;6.18;;;13.60;99.90;;;;;;5043392;28;20091;-70
2023/07/25 05:43:58;;;;;;;16.85;6.07;;;13.60;99.90;;;;;;5044541;28;20037;-69
2023/07/25 05:46:24;;;;;;;18.13;6.32;;;13.70;99.90;;;;;;5045320;28;20072;-70
2023/07/25 05:48:49;;;;;;;18.45;6.10;;;13.70;99.90;;;;;;5042085;28;20558;-71
2023/07/25 05:51:15;;;;;;;14.93;6.07;;;13.80;99.90;;;;;;5044017;28;20053;-71
2023/07/25 05:53:40;;;;;;;16.38;5.68;;;13.80;99.90;;;;;;5043127;28;20052;-70
2023/07/25 05:56:06;;;;;;;13.18;5.90;;;13.80;99.90;;;;;;5044354;28;20865;-69
2023/07/25 05:58:32;;;;;;;12.95;6.07;;;13.90;99.90;;;;;;5044828;28;20386;-70
2023/07/25 06:00:57;;;;;;;19.00;6.30;;;13.90;99.90;;;;;;5043246;28;20037;-70
2023/07/25 06:03:23;;;;;;;13.30;5.50;;;13.90;99.90;;;;;;5042967;28;20037;-70
2023/07/25 06:05:49;;;;;;;15.88;6.05;;;14.00;99.90;;;;;;5043432;28;20044;-70
2023/07/25 06:08:14;;;;;;;15.52;5.57;;;14.00;99.90;;;;;;5042965;28;20064;-71
2023/07/25 06:10:40;;;;;;;15.20;5.93;;;14.10;99.90;;;;;;5043313;28;20033;-70
2023/07/25 06:13:06;;;;;;;14.93;6.55;;;14.10;99.90;;;;;;5042778;28;20159;-70
2023/07/25 06:15:36;;;;;;;17.58;5.65;;;14.10;99.90;;;;;;5042873;28;20080;-70
2023/07/25 06:18:05;;;;;;;11.88;5.47;;;14.10;99.90;;;;;;5043893;28;20022;-70
2023/07/25 06:20:34;;;;;;;17.17;5.60;;;14.20;99.90;;;;;;5043478;28;20121;-69
2023/07/25 06:23:01;;;;;;;17.27;6.07;;;14.20;99.90;;;;;;5044438;28;20025;-72
2023/07/25 06:25:27;;;;;;;12.50;5.43;;;14.30;99.90;;;;;;5041909;28;20021;-72
2023/07/25 06:27:54;;;;;;;13.30;5.85;;;14.30;99.90;;;;;;5042784;28;20022;-71
2023/07/25 06:30:20;;;;;;;11.77;5.47;;;14.30;99.90;;;;;;5044246;28;20030;-72
2023/07/25 06:32:46;;;;;;;15.95;5.57;;;14.30;99.90;;;;;;5041527;28;20436;-71
2023/07/25 06:35:12;;;;;;;11.30;5.10;;;14.30;99.90;;;;;;5042832;28;20041;-70
2023/07/25 06:37:38;;;;;;;16.08;5.05;;;14.30;99.90;;;;;;5041916;28;20408;-71
2023/07/25 06:40:04;;;;;;;14.77;6.00;;;14.30;99.90;;;;;;5040475;28;20029;-71
2023/07/25 06:42:30;;;;;;;11.80;5.32;;;14.40;99.90;;;;;;5043445;28;20044;-70
2023/07/25 06:44:57;;;;;;;15.13;5.40;;;14.40;99.90;;;;;;5043511;28;20038;-74
2023/07/25 06:47:24;;;;;;;17.52;4.97;;;14.40;99.90;;;;;;5043893;28;20079;-73
2023/07/25 06:49:50;;;;;;;12.45;5.13;;;14.40;99.90;;;;;;5042425;28;20045;-69
2023/07/25 06:52:15;;;;;;;11.85;5.35;;;14.40;99.90;;;;;;5043325;28;20122;-70
2023/07/25 06:54:43;;;;;;;13.93;5.70;;;14.50;99.90;;;;;;5041764;28;20041;-69
2023/07/25 06:57:09;;;;;;;16.15;5.25;;;14.50;99.90;;;;;;5042519;28;20034;-69
2023/07/25 06:59:35;;;;;;;10.27;5.65;;;14.50;99.90;;;;;;5041864;28;20056;-69
2023/07/25 07:02:01;;;;;;;14.05;5.35;;;14.60;99.90;;;;;;5041413;28;20030;-71
2023/07/25 07:04:26;;;;;;;13.95;5.30;;;14.60;99.90;;;;;;5041969;28;20041;-69
2023/07/25 07:06:53;;;;;;;16.20;5.45;;;14.60;99.90;;;;;;5042353;28;20037;-71
2023/07/25 07:09:18;;;;;;;14.18;5.32;;;14.70;99.90;;;;;;5039262;28;20131;-70
2023/07/25 07:11:44;;;;;;;12.68;4.70;;;14.70;99.90;;;;;;5043241;28;20092;-70
2023/07/25 07:14:09;;;;;;;14.27;5.45;;;14.70;99.90;;;;;;5041881;28;20428;-70
2023/07/25 07:16:35;;;;;;;18.50;5.35;;;14.70;99.90;;;;;;5041545;28;20037;-71
2023/07/25 07:19:01;;;;;;;20.30;5.47;;;14.80;99.90;;;;;;5041601;28;20113;-72
2023/07/25 07:21:27;;;;;;;14.77;5.07;;;14.80;99.90;;;;;;5041426;28;20033;-70
2023/07/25 07:23:52;;;;;;;11.40;4.88;;;14.80;99.90;;;;;;5042028;28;20064;-71
2023/07/25 07:26:18;;;;;;;11.52;4.72;;;14.80;99.90;;;;;;5042966;28;20024;-70
2023/07/25 07:28:45;;;;;;;16.65;5.55;;;14.80;99.90;;;;;;5041875;28;20037;-70
2023/07/25 07:31:12;;;;;;;13.32;4.95;;;14.80;99.90;;;;;;5041707;28;20079;-72
2023/07/25 07:33:38;;;;;;;17.83;5.88;;;14.80;99.90;;;;;;5041914;28;20025;-69
2023/07/25 07:36:04;;;;;;;12.18;5.03;;;14.80;99.90;;;;;;5041652;28;20033;-71
2023/07/25 07:38:30;;;;;;;11.82;5.07;;;14.80;99.90;;;;;;5042733;28;20032;-70
2023/07/25 07:40:55;;;;;;;14.48;5.15;;;14.80;99.90;;;;;;5041441;28;20037;-73
2023/07/25 07:43:21;;;;;;;12.73;5.15;;;14.70;99.90;;;;;;5040873;28;20056;-72
2023/07/25 07:45:48;;;;;;;10.45;4.60;;;14.70;99.90;;;;;;5041564;28;20040;-72
2023/07/25 07:48:14;;;;;;;10.80;4.85;;;14.60;99.90;;;;;;5041357;28;20022;-72
2023/07/25 07:50:40;;;;;;;13.50;5.13;;;14.60;99.90;;;;;;5040677;28;20051;-72
2023/07/25 07:53:05;;;;;;;16.83;5.85;;;14.50;99.90;;;;;;5042123;28;20033;-71
2023/07/25 07:55:31;;;;;;;12.65;5.22;;;14.50;99.90;;;;;;5040431;28;20017;-72
2023/07/25 07:57:57;;;;;;;10.32;4.05;;;14.50;99.90;;;;;;5040010;28;20037;-71
2023/07/25 08:00:26;;;;;;;8.15;3.45;;;14.40;99.90;;;;;;5041701;28;20033;-73
2023/07/25 08:02:51;;;;;;;11.63;3.63;;;14.20;99.90;;;;;;5041144;28;20021;-71
2023/07/25 08:05:17;;;;;;;8.85;3.63;;;14.10;99.90;;;;;;5039693;28;20095;-71
2023/07/25 08:07:43;;;;;;;8.98;3.13;;;14.10;99.90;;;;;;5039593;28;20029;-70
2023/07/25 08:10:09;;;;;;;6.78;3.20;;;14.10;99.90;;;;;;5035729;28;20032;-71
2023/07/25 08:12:35;;;;;;;9.73;3.17;;;14.20;99.90;;;;;;5040820;28;20520;-70
2023/07/25 08:15:02;;;;;;;10.32;3.25;;;14.30;99.90;;;;;;5040655;28;21088;-73
2023/07/25 08:17:28;;;;;;;8.63;2.85;;;14.30;99.90;;;;;;5037790;28;20037;-73
2023/07/25 08:19:54;;;;;;;5.45;2.65;;;14.40;99.90;;;;;;5040343;28;20026;-71
2023/07/25 08:22:20;;;;;;;5.93;2.55;;;14.50;99.90;;;;;;5042042;28;20032;-72
2023/07/25 08:24:46;;;;;;;8.18;2.92;;;14.60;99.90;;;;;;5041496;28;20033;-70
2023/07/25 08:27:12;;;;;;;8.90;2.50;;;14.70;99.90;;;;;;5040425;28;20390;-68
2023/07/25 08:29:42;;;;;;;7.95;2.88;;;14.80;99.90;;;;;;5038747;28;20033;-70
2023/07/25 08:32:09;;;;;;;8.82;3.30;;;14.90;99.90;;;;;;5040815;28;20049;-70
2023/07/25 08:34:35;;;;;;;4.75;2.72;;;14.90;99.90;;;;;;5038642;28;20097;-69
2023/07/25 08:37:02;;;;;;;6.05;3.38;;;15.00;99.90;;;;;;5039850;28;20075;-70
2023/07/25 08:39:27;;;;;;;5.55;2.53;;;15.10;99.90;;;;;;5039168;28;20029;-71
2023/07/25 08:41:53;;;;;;;7.45;2.72;;;15.20;99.90;;;;;;5040715;28;20064;-69
2023/07/25 08:44:22;;;;;;;3.95;2.65;;;15.30;99.90;;;;;;5040989;28;20493;-69
2023/07/25 08:46:51;;;;;;;6.03;2.05;;;15.30;99.90;;;;;;5041198;28;20029;-69
2023/07/25 08:49:24;;;;;;;8.73;2.47;;;15.40;99.90;;;;;;5041486;28;20030;-69
2023/07/25 08:51:52;;;;;;;2.13;1.83;;;15.40;99.90;;;;;;5041313;28;20061;-69
2023/07/25 08:54:32;;;;;;;6.18;2.20;;;15.50;99.90;;;;;;5040350;28;20044;-69
2023/07/25 08:56:58;;;;;;;5.13;1.90;;;15.60;99.90;;;;;;5041084;28;20036;-69
2023/07/25 08:59:25;;;;;;;6.78;2.15;;;15.70;99.90;;;;;;5040064;28;20044;-70
2023/07/25 09:01:51;;;;;;;7.63;2.03;;;15.80;99.90;;;;;;5041128;28;20029;-68
2023/07/25 09:04:19;;;;;;;6.43;2.28;;;15.80;99.90;;;;;;5040117;28;20104;-68
2023/07/25 09:06:45;;;;;;;4.25;1.75;;;15.90;99.90;;;;;;5039425;28;20033;-67
2023/07/25 09:09:11;;;;;;;3.10;1.95;;;15.90;99.90;;;;;;5039460;28;20029;-69
2023/07/25 09:11:37;;;;;;;7.65;1.92;;;15.90;99.90;;;;;;5039654;28;20060;-68
2023/07/25 09:14:03;;;;;;;7.05;2.08;;;16.00;99.90;;;;;;5040671;28;20060;-68
2023/07/25 09:16:30;;;;;;;19.45;2.72;;;16.00;99.90;;;;;;5040381;28;20029;-69
2023/07/25 09:18:55;;;;;;;11.48;2.30;;;16.00;99.90;;;;;;5041127;28;20117;-69
2023/07/25 09:21:21;;;;;;;9.57;2.45;;;16.10;99.90;;;;;;5041974;28;20053;-67
2023/07/25 09:23:58;;;;;;;5.32;2.05;;;16.10;99.90;;;;;;5040399;28;20041;-68
2023/07/25 09:26:30;;;;;;;7.95;2.45;;;16.30;99.90;;;;;;5039740;28;20025;-69
2023/07/25 09:28:59;;;;;;;3.95;1.75;;;16.30;99.90;;;;;;5041407;28;20179;-66
2023/07/25 09:31:26;;;;;;;6.00;1.80;;;16.40;99.90;;;;;;5039224;28;20045;-69
2023/07/25 09:33:55;;;;;;;9.00;2.08;;;16.40;99.90;;;;;;5040117;28;20032;-66
2023/07/25 09:36:21;;;;;;;3.65;2.00;;;16.50;99.90;;;;;;5036746;28;20034;-67
2023/07/25 09:38:48;;;;;;;8.50;1.83;;;16.60;99.90;;;;;;5039152;28;20036;-68
2023/07/25 09:41:14;;;;;;;7.40;3.17;;;16.70;99.90;;;;;;5040125;28;20101;-67
2023/07/25 09:43:39;;;;;;;22.60;3.47;;;16.90;99.90;;;;;;5041079;28;20065;-68
2023/07/25 09:46:05;;;;;;;12.13;2.38;;;16.90;99.90;;;;;;5039864;28;20041;-68
2023/07/25 09:48:32;;;;;;;6.25;2.60;;;17.00;99.90;;;;;;5040045;28;20032;-67
2023/07/25 09:50:58;;;;;;;9.18;2.30;;;17.10;99.90;;;;;;5040769;28;20045;-70
2023/07/25 09:53:24;;;;;;;5.57;2.30;;;17.20;99.90;;;;;;5043684;28;20033;-70
2023/07/25 09:55:50;;;;;;;8.60;2.38;;;17.30;99.90;;;;;;5044851;28;20030;-68
2023/07/25 09:58:15;;;;;;;8.88;2.10;;;17.30;99.90;;;;;;5044258;28;20025;-68
2023/07/25 10:00:43;;;;;;;16.25;2.45;;;17.30;99.90;;;;;;5044213;28;20703;-68
2023/07/25 10:03:09;;;;;;;8.45;2.35;;;17.40;99.90;;;;;;5044241;28;20026;-68
2023/07/25 10:05:42;;;;;;;8.45;1.80;;;17.50;99.90;;;;;;5044088;28;20025;-67
2023/07/25 10:08:08;;;;;;;8.95;1.98;;;17.60;99.90;;;;;;5042471;28;21359;-67
2023/07/25 10:10:34;;;;;;;6.82;2.00;;;17.80;99.90;;;;;;5044561;28;20474;-69
2023/07/25 10:13:00;;;;;;;11.07;2.33;;;17.90;99.90;;;;;;5044033;28;20106;-69
2023/07/25 10:15:26;;;;;;;9.50;2.47;;;18.00;99.90;;;;;;5044120;28;20108;-71
2023/07/25 10:18:00;;;;;;;8.43;2.25;;;18.10;99.90;;;;;;5030961;28;20123;-73
2023/07/25 10:20:25;;;;;;;6.03;1.98;;;18.20;99.90;;;;;;5035025;28;20017;-73
2023/07/25 10:22:51;;;;;;;6.60;2.00;;;18.20;99.90;;;;;;5038778;28;20056;-71
2023/07/25 10:25:26;;;;;;;7.63;1.95;;;18.00;99.90;;;;;;5039143;28;20116;-75
2023/07/25 10:27:58;;;;;;;4.93;2.03;;;17.60;99.90;;;;;;5039505;28;20029;-72
2023/07/25 10:30:26;;;;;;;9.07;2.42;;;17.10;99.90;;;;;;5041845;28;20040;-71
2023/07/25 10:32:56;;;;;;;6.13;1.80;;;16.80;99.90;;;;;;5041537;28;20049;-71
2023/07/25 10:35:49;;;;;;;7.70;2.67;;;16.60;99.90;;;;;;5043382;28;20029;-72
2023/07/25 10:38:21;;;;;;;9.02;2.22;;;16.40;99.90;;;;;;5041991;28;20060;-73
2023/07/25 10:40:59;;;;;;;8.90;2.33;;;16.40;99.90;;;;;;5042044;28;20049;-71
2023/07/25 10:43:49;;;;;;;6.05;2.53;;;16.30;99.90;;;;;;5042994;28;20041;-73
2023/07/25 10:46:23;;;;;;;8.95;2.40;;;16.30;99.90;;;;;;5042500;28;20097;-69
2023/07/25 10:48:52;;;;;;;8.40;2.38;;;16.30;99.90;;;;;;5042962;28;20068;-70
2023/07/25 10:51:19;;;;;;;10.45;3.05;;;16.20;99.90;;;;;;5042824;28;20041;-70
2023/07/25 10:54:05;;;;;;;13.60;2.97;;;16.30;99.90;;;;;;5042587;28;20104;-71
2023/07/25 10:56:30;;;;;;;8.50;2.78;;;16.20;99.90;;;;;;5041523;28;20027;-71
2023/07/25 10:59:10;;;;;;;6.97;3.03;;;16.30;99.90;;;;;;5043007;28;20073;-74
2023/07/25 11:01:44;;;;;;;11.30;2.90;;;16.30;99.90;;;;;;5043562;28;20068;-70
2023/07/25 11:04:28;;;;;;;7.97;2.50;;;16.30;99.90;;;;;;5040444;28;20061;-71
2023/07/25 11:07:14;;;;;;;8.93;2.70;;;16.40;99.90;;;;;;5042592;28;20049;-73
2023/07/25 11:09:42;;;;;;;12.48;2.80;;;16.50;99.90;;;;;;5042687;28;20076;-73
2023/07/25 11:12:09;;;;;;;9.60;2.55;;;16.70;99.90;;;;;;5041808;28;20037;-72
2023/07/25 11:14:43;;;;;;;14.27;3.03;;;16.80;99.90;;;;;;5043286;28;20025;-75
2023/07/25 11:17:13;;;;;;;15.45;3.10;;;17.00;99.90;;;;;;5040548;28;20030;-72
2023/07/25 11:19:39;;;;;;;11.25;2.53;;;17.20;99.90;;;;;;5045001;28;20017;-70
2023/07/25 11:22:11;;;;;;;6.07;2.15;;;17.40;99.90;;;;;;5045865;28;20018;-70
2023/07/25 11:24:44;;;;;;;10.77;2.95;;;17.50;99.90;;;;;;5042943;28;20054;-71
2023/07/25 11:27:11;;;;;;;7.35;2.22;;;17.60;99.90;;;;;;5040521;28;20045;-69
2023/07/25 11:29:36;;;;;;;10.93;2.50;;;17.80;99.90;;;;;;5041233;28;20017;-72
2023/07/25 11:32:02;;;;;;;12.75;2.70;;;17.90;99.90;;;;;;5042969;28;20040;-71
2023/07/25 11:34:28;;;;;;;9.90;2.58;;;18.00;99.90;;;;;;5041763;28;20025;-75
2023/07/25 11:36:54;;;;;;;7.10;2.25;;;18.10;99.90;;;;;;5042799;28;20021;-75
2023/07/25 11:39:21;;;;;;;10.50;2.25;;;18.20;99.90;;;;;;5042860;28;20156;-69
2023/07/25 11:41:47;;;;;;;9.73;2.47;;;18.30;99.90;;;;;;5041011;28;20025;-70
2023/07/25 11:44:19;;;;;;;10.25;2.42;;;18.50;99.90;;;;;;5041972;28;20034;-72
2023/07/25 11:46:50;;;;;;;8.50;1.90;;;18.60;99.90;;;;;;5041971;28;20036;-69
2023/07/25 11:49:16;;;;;;;12.35;2.50;;;18.60;99.90;;;;;;5040630;28;20041;-71
2023/07/25 11:51:42;;;;;;;10.77;2.20;;;18.50;99.90;;;;;;5041666;28;20037;-71
2023/07/25 11:54:09;;;;;;;8.13;2.35;;;18.40;99.90;;;;;;5039598;28;20052;-71
2023/07/25 11:56:35;;;;;;;8.38;1.90;;;18.30;99.90;;;;;;5041848;28;20017;-71
2023/07/25 11:59:02;;;;;;;7.95;2.00;;;18.30;99.90;;;;;;5040348;28;20044;-72
2023/07/25 12:01:31;;;;;;;10.88;2.33;;;18.30;99.90;;;;;;5040587;28;20113;-76
2023/07/25 12:04:02;;;;;;;8.05;1.77;;;18.40;99.90;;;;;;5039583;28;20099;-71
2023/07/25 12:06:30;;;;;;;6.15;1.92;;;18.60;99.90;;;;;;5041917;28;20030;-72
2023/07/25 12:08:58;;;;;;;8.85;1.77;;;18.80;99.90;;;;;;5039616;28;20022;-73
2023/07/25 12:11:24;;;;;;;6.85;1.60;;;19.20;99.90;;;;;;5041202;28;20025;-73
2023/07/25 12:13:57;;;;;;;7.43;1.70;;;19.30;99.90;;;;;;5040629;28;20025;-72
2023/07/25 12:16:30;;;;;;;7.72;1.88;;;19.50;99.90;;;;;;5042467;28;20033;-73
2023/07/25 12:18:59;;;;;;;5.63;1.70;;;19.70;99.90;;;;;;5040112;28;20036;-73
2023/07/25 12:21:30;;;;;;;5.47;1.40;;;19.60;99.90;;;;;;5041649;28;20690;-74
2023/07/25 12:23:58;;;;;;;3.88;1.20;;;19.40;99.90;;;;;;5040059;28;20048;-75
2023/07/25 12:26:25;;;;;;;3.08;1.33;;;19.30;99.90;;;;;;5040228;28;20597;-74
2023/07/25 12:28:52;;;;;;;7.15;1.60;;;19.30;99.90;;;;;;5041331;28;20029;-75
2023/07/25 12:31:18;;;;;;;5.45;1.25;;;19.30;99.90;;;;;;5039205;28;20084;-72
2023/07/25 12:33:45;;;;;;;5.07;1.40;;;19.40;99.90;;;;;;5041153;28;20030;-73
2023/07/25 12:36:11;;;;;;;6.25;1.23;;;19.70;99.90;;;;;;5041330;28;20018;-70
2023/07/25 12:38:37;;;;;;;6.25;1.30;;;20.00;99.90;;;;;;5040751;28;20037;-70